ETSB 200120Z AUTO 07005KT 9999 // ////// 16/13 Q1022 /// ETSB 200020Z AUTO 36004KT 9999 // ////// 15/14 Q1022 /// ETSB 192320Z AUTO 01003KT 9999 // ////// 15/15 Q1023 /// ETSB 192220Z AUTO 14003KT 9999 // ////// 16/14 Q1023 /// ETSB 192120Z AUTO 08001KT 9999 // ////// 16/14 Q1022 /// ETSB 192020Z AUTO 09001KT 9999 // ////// 16/15 Q1022 /// ETSB 191920Z AUTO 13004KT 9999 // ////// 16/15 Q1022 /// ETSB 191820Z AUTO 04003KT 9999 // ////// 17/15 Q1022 /// ETSB 191720Z AUTO 07004KT 9999 // ////// 18/15 Q1021 /// ETSB 191620Z AUTO 01008KT 9999 // ////// 17/15 Q1020 /// ETSB 191520Z 33006KT 9999 TS FEW010 SCT050CB BKN100 16/15 Q1020 RETSGR BLU ETSB 191512Z 31007KT 5000 -TSRA BR FEW002 SCT050CB BKN100 16/15 Q1020 RESHGR WHT FCST CANCEL ETSB 191455Z 24014G32KT 3000 -TSRA BR FEW002 BKN020CB BKN100 14/13 Q1020 RESHGR YLO BLU+ TEMPO RED ETSB 191448Z 31018G32KT 0200 R21/2300D +TSGR FEW002 BKN020CB BKN200 16/13 Q1021 RED BLU+ TEMPO RED ETSB 191446Z 32019G30KT 0700 R21/4100D +TSGR FEW002 BKN020CB BKN200 17/13 Q1020 RED BLU+ TEMPO RED ETSB 191445Z 32020G30KT 3000 +TSRA SCT030 BKN040CB BKN200 18/13 Q1020 YLO BLU+ TEMPO RED ETSB 191443Z 32021G31KT 5000 TSRA SCT030 BKN040CB BKN200 19/13 Q1020 WHT BLU+ TEMPO RED ETSB 191435Z 28011G31KT 8000 TSRA SCT030 BKN040CB BKN200 24/13 Q1019 BLU BLU+ TEMPO RED ETSB 191420Z 24012KT 9999 TS SCT030 SCT040CB BKN200 25/15 Q1019 BLU+BLU+ TEMPO RED ETSB 191406Z 23012KT 9999 TS FEW030 SCT040CB BKN220 26/15 Q1019 BLU+BLU+ TEMPO RED ETSB 191331Z 22013KT 9999 FEW030CB BKN180 26/14 Q1019 BLU BLU TEMPO RED ETSB 191320Z 21012KT 9999 FEW030CB BKN180 26/15 Q1019 BLU BLU TEMPO BLU+ ETSB 191220Z 21012KT 9999 FEW040 SCT070 BKN180 26/14 Q1019 BLU BLU TEMPO BLU+ ETSB 191120Z 20007KT 9999 FEW040 SCT100 BKN220 25/13 Q1019 BLU+BLU TEMPO BLU+ ETSB 191020Z 17006KT 9999 VCSH FEW040 BKN160 23/13 Q1020 BLU BLU ETSB 190920Z 17005KT 9999 FEW032 BKN220 23/12 Q1020 BLU+BLU+ ETSB 190820Z 13004KT 9999 FEW032 BKN220 21/12 Q1020 BLU+BLU+ ETSB 190720Z 14004KT 9999 FEW110 BKN260 21/12 Q1020 BLU+BLU+ ETSB 190620Z 14006KT 9999 FEW110 BKN260 19/11 Q1020 BLU+BLU+ ETSB 190520Z 13004KT 9999 FEW220 BKN260 18/11 Q1020 BLU+BLU+ ETSB 190420Z 15005KT 9999 SCT220 BKN260 17/10 Q1020 BLU+BLU+ ETSB 190320Z 15006KT 9999 SCT240 17/10 Q1020 BLU+ ETSB 190307Z 16006KT 9999 SCT240 18/10 Q1020 BLU+ ETSB 190220Z AUTO 16005KT 9999 // ////// 18/10 Q1020 /// ETSB 190120Z AUTO 16006KT 9999 // ////// 19/10 Q1020 /// ETSB 190020Z AUTO 14005KT 9999 // ////// 19/10 Q1020 /// ETSB 182320Z AUTO 15004KT 9999 // ////// 19/09 Q1021 /// ETSB 182220Z AUTO 10005KT 9999 // ////// 20/09 Q1021 /// ETSB 182120Z AUTO 11003KT 9999 // ////// 21/09 Q1021 /// ETSB 182020Z AUTO 13004KT 9999 // ////// 21/09 Q1021 /// ETSB 181920Z AUTO 13004KT 9999 // ////// 22/10 Q1021 /// ETSB 181820Z AUTO 11006KT 9999 // ////// 24/10 Q1021 /// ETSB 181720Z AUTO 11007KT 9999 // ////// 25/10 Q1021 /// ETSB 181620Z AUTO 12007KT 9999 // ////// 25/10 Q1021 /// ETSB 181520Z 16006KT 9999 FEW050 SCT360 25/09 Q1021 BLU+FCST CANCEL ETSB 181420Z 11007KT 9999 FEW050 26/10 Q1022 BLU+BLU+

METAR Messwerte "BUECHEL" ETSB

Zurück zur Übersicht

Ortsname
Ländercode / m ü. NN
Zeit Temperatur Taupunkt Rel.
Luftfeuchte
Luftdruck:
Altimeter
NN
Station
Wind in Beaufort
(Knoten)
Sichtweite
(Meter)
Wolken
(Meter über Grund)
Wettererscheinung
BUECHEL
DE 477
Fr 20.05. 03:20161382 %1022
1022
966
ONO 2 (5)>= 10000  
BUECHEL
DE 477
Fr 20.05. 02:20151494 %1022
1022
966
N 2 (4)>= 10000  
BUECHEL
DE 477
Fr 20.05. 01:201515100 %1023
1023
967
N 2 (3)>= 10000  
BUECHEL
DE 477
Fr 20.05. 00:20161488 %1023
1023
967
SO 2 (3)>= 10000  
BUECHEL
DE 477
Do 19.05. 23:20161488 %1022
1022
966
O 1 (1)>= 10000  
BUECHEL
DE 477
Do 19.05. 22:20161594 %1022
1022
966
O 1 (1)>= 10000  
BUECHEL
DE 477
Do 19.05. 21:20161594 %1022
1022
966
SO 2 (4)>= 10000  
BUECHEL
DE 477
Do 19.05. 20:20171588 %1022
1022
966
NO 2 (3)>= 10000  
BUECHEL
DE 477
Do 19.05. 19:20181583 %1021
1020
965
ONO 2 (4)>= 10000  
BUECHEL
DE 477
Do 19.05. 18:20171588 %1020
1020
964
N 3 (8)>= 10000  
BUECHEL
DE 477
Do 19.05. 17:20161594 %1020
1020
964
NNW 2 (6)>= 10000Stark bewölkt (3000)
Wolkig Cb (1500)
Leicht bewölkt (300)
 
BUECHEL
DE 477
Do 19.05. 17:12161594 %1020
1020
964
NW 3 (7)5000Stark bewölkt (3000)
Wolkig Cb (1500)
Leicht bewölkt (61)
Gewitter mit Regen (schwach)
Nebeldunst
BUECHEL
DE 477
Do 19.05. 16:55141394 %1020
1020
964
WSW 4 (14) - 7 (32)3000Stark bewölkt (3000)
Stark bewölkt Cb (610)
Leicht bewölkt (61)
Gewitter mit Regen (schwach)
Nebeldunst
BUECHEL
DE 477
Do 19.05. 16:48161382 %1021
1021
965
NW 5 (18) - 7 (32)200Stark bewölkt (6100)
Stark bewölkt Cb (610)
Leicht bewölkt (61)
Gewitter mit Hagel (stark)
BUECHEL
DE 477
Do 19.05. 16:46171377 %1020
1020
964
NW 5 (19) - 7 (30)700Stark bewölkt (6100)
Stark bewölkt Cb (610)
Leicht bewölkt (61)
Gewitter mit Hagel (stark)
BUECHEL
DE 477
Do 19.05. 16:45181373 %1020
1019
964
NW 5 (20) - 7 (30)3000Stark bewölkt (6100)
Stark bewölkt Cb (1200)
Wolkig (910)
Gewitter mit Regen (stark)
BUECHEL
DE 477
Do 19.05. 16:43191368 %1020
1019
964
NW 6 (21) - 7 (31)5000Stark bewölkt (6100)
Stark bewölkt Cb (1200)
Wolkig (910)
Gewitter mit Regen
BUECHEL
DE 477
Do 19.05. 16:35241350 %1019
1017
963
W 4 (11) - 7 (31)8000Stark bewölkt (6100)
Stark bewölkt Cb (1200)
Wolkig (910)
Gewitter mit Regen
BUECHEL
DE 477
Do 19.05. 16:20251554 %1019
1017
963
WSW 4 (12)>= 10000Stark bewölkt (6100)
Wolkig Cb (1200)
Wolkig (910)
 
BUECHEL
DE 477
Do 19.05. 16:06261551 %1019
1017
963
SW 4 (12)>= 10000Stark bewölkt (6700)
Wolkig Cb (1200)
Leicht bewölkt (910)
 
BUECHEL
DE 477
Do 19.05. 15:31261448 %1019
1017
963
SW 4 (13)>= 10000Stark bewölkt (5500)
Leicht bewölkt Cb (910)
 
BUECHEL
DE 477
Do 19.05. 15:20261551 %1019
1017
963
SSW 4 (12)>= 10000Stark bewölkt (5500)
Leicht bewölkt Cb (910)
 
BUECHEL
DE 477
Do 19.05. 14:20261448 %1019
1017
963
SSW 4 (12)>= 10000Stark bewölkt (5500)
Wolkig (2100)
Leicht bewölkt (1200)
 
BUECHEL
DE 477
Do 19.05. 13:20251347 %1019
1017
963
SSW 3 (7)>= 10000Stark bewölkt (6700)
Wolkig (3000)
Leicht bewölkt (1200)
 
BUECHEL
DE 477
Do 19.05. 12:20231353 %1020
1019
964
S 2 (6)>= 10000Stark bewölkt (4900)
Leicht bewölkt (1200)
 
BUECHEL
DE 477
Do 19.05. 11:20231250 %1020
1019
964
S 2 (5)>= 10000Stark bewölkt (6700)
Leicht bewölkt (980)
 
BUECHEL
DE 477
Do 19.05. 10:20211256 %1020
1019
964
SO 2 (4)>= 10000Stark bewölkt (6700)
Leicht bewölkt (980)
 
BUECHEL
DE 477
Do 19.05. 09:20211256 %1020
1019
964
SO 2 (4)>= 10000Stark bewölkt (7900)
Leicht bewölkt (3400)
 
BUECHEL
DE 477
Do 19.05. 08:20191160 %1020
1019
964
SO 2 (6)>= 10000Stark bewölkt (7900)
Leicht bewölkt (3400)
 
BUECHEL
DE 477
Do 19.05. 07:20181164 %1020
1019
964
SO 2 (4)>= 10000Stark bewölkt (7900)
Leicht bewölkt (6700)
 
BUECHEL
DE 477
Do 19.05. 06:20171063 %1020
1020
964
SSO 2 (5)>= 10000Stark bewölkt (7900)
Wolkig (6700)
 
BUECHEL
DE 477
Do 19.05. 05:20171063 %1020
1020
964
SSO 2 (6)>= 10000Wolkig (7300) 
BUECHEL
DE 477
Do 19.05. 05:07181059 %1020
1019
964
SSO 2 (6)>= 10000Wolkig (7300) 
BUECHEL
DE 477
Do 19.05. 04:20181059 %1020
1019
964
SSO 2 (5)>= 10000  
BUECHEL
DE 477
Do 19.05. 03:20191056 %1020
1019
964
SSO 2 (6)>= 10000  
BUECHEL
DE 477
Do 19.05. 02:20191056 %1020
1019
964
SO 2 (5)>= 10000  
BUECHEL
DE 477
Do 19.05. 01:2019952 %1021
1020
965
SSO 2 (4)>= 10000  
BUECHEL
DE 477
Do 19.05. 00:2020949 %1021
1020
965
O 2 (5)>= 10000  
BUECHEL
DE 477
Mi 18.05. 23:2021946 %1021
1020
965
OSO 2 (3)>= 10000  
BUECHEL
DE 477
Mi 18.05. 22:2021946 %1021
1020
965
SO 2 (4)>= 10000  
BUECHEL
DE 477
Mi 18.05. 21:20221046 %1021
1020
965
SO 2 (4)>= 10000  
BUECHEL
DE 477
Mi 18.05. 20:20241041 %1021
1019
965
OSO 2 (6)>= 10000  
BUECHEL
DE 477
Mi 18.05. 19:20251039 %1021
1019
965
OSO 3 (7)>= 10000  
BUECHEL
DE 477
Mi 18.05. 18:20251039 %1021
1019
965
OSO 3 (7)>= 10000  
BUECHEL
DE 477
Mi 18.05. 17:2025936 %1021
1019
965
SSO 2 (6)>= 10000Wolkig (11000)
Leicht bewölkt (1500)
 
BUECHEL
DE 477
Mi 18.05. 16:20261037 %1022
1020
966
OSO 3 (7)>= 10000Leicht bewölkt (1500) 

Altimeter: Einstellung am Altimeter (Höhenmesser), die Höhe 0 muss auf diesen Luftdruckwert zeigen, damit das Gerät die Stationshöhe richtig anzeigt.

NN: Luftdruck reduziert auf "Normal Null", auf Meereshöhe, dieser von der Temperatur abhängige Wert wird bisweilen unkorrekt einfach als "Luftdruck" bezeichnet. Eigentlich nur eine fiktive Größe, die es erlaubt, Stationen auf unterschiedlichen Höhen miteinander zu vergleichen.

Station: Realer Luftdruck an der Station.